sensor_id;sensor_type;location;lat;lon;timestamp;temperature;humidity
71128;SHT30;59249;59.736;30.568;2022-09-30T00:01:49;10.25;89.86
71128;SHT30;59249;59.736;30.568;2022-09-30T00:04:21;10.21;90.06
71128;SHT30;59249;59.736;30.568;2022-09-30T00:06:52;10.19;90.32
71128;SHT30;59249;59.736;30.568;2022-09-30T00:09:21;10.20;90.25
71128;SHT30;59249;59.736;30.568;2022-09-30T00:11:50;10.19;90.18
71128;SHT30;59249;59.736;30.568;2022-09-30T00:14:21;10.17;90.11
71128;SHT30;59249;59.736;30.568;2022-09-30T00:16:51;10.17;90.26
71128;SHT30;59249;59.736;30.568;2022-09-30T00:19:20;10.15;90.39
71128;SHT30;59249;59.736;30.568;2022-09-30T00:21:49;10.20;90.16
71128;SHT30;59249;59.736;30.568;2022-09-30T00:24:17;10.24;90.15
71128;SHT30;59249;59.736;30.568;2022-09-30T00:26:47;10.24;89.97
71128;SHT30;59249;59.736;30.568;2022-09-30T00:29:16;10.20;89.95
71128;SHT30;59249;59.736;30.568;2022-09-30T00:31:44;10.22;90.31
71128;SHT30;59249;59.736;30.568;2022-09-30T00:34:15;10.20;90.21
71128;SHT30;59249;59.736;30.568;2022-09-30T00:36:47;10.24;90.03
71128;SHT30;59249;59.736;30.568;2022-09-30T00:39:18;10.22;90.06
71128;SHT30;59249;59.736;30.568;2022-09-30T00:41:50;10.22;89.88
71128;SHT30;59249;59.736;30.568;2022-09-30T00:44:45;10.21;89.84
71128;SHT30;59249;59.736;30.568;2022-09-30T00:47:45;10.26;89.92
71128;SHT30;59249;59.736;30.568;2022-09-30T00:50:36;10.22;89.86
71128;SHT30;59249;59.736;30.568;2022-09-30T00:53:14;10.16;89.95
71128;SHT30;59249;59.736;30.568;2022-09-30T00:55:51;10.17;90.08
71128;SHT30;59249;59.736;30.568;2022-09-30T00:58:27;10.16;90.13
71128;SHT30;59249;59.736;30.568;2022-09-30T01:00:59;10.17;90.10
71128;SHT30;59249;59.736;30.568;2022-09-30T01:03:30;10.14;89.90
71128;SHT30;59249;59.736;30.568;2022-09-30T01:06:02;10.15;90.24
71128;SHT30;59249;59.736;30.568;2022-09-30T01:08:34;10.18;90.18
71128;SHT30;59249;59.736;30.568;2022-09-30T01:11:05;10.20;89.86
71128;SHT30;59249;59.736;30.568;2022-09-30T01:13:36;10.19;89.97
71128;SHT30;59249;59.736;30.568;2022-09-30T01:16:25;10.18;89.79
71128;SHT30;59249;59.736;30.568;2022-09-30T01:19:18;10.19;90.11
71128;SHT30;59249;59.736;30.568;2022-09-30T01:22:13;10.18;89.98
71128;SHT30;59249;59.736;30.568;2022-09-30T01:25:16;10.14;89.93
71128;SHT30;59249;59.736;30.568;2022-09-30T01:28:35;10.17;89.99
71128;SHT30;59249;59.736;30.568;2022-09-30T01:31:27;10.13;90.23
71128;SHT30;59249;59.736;30.568;2022-09-30T01:34:10;10.16;90.17
71128;SHT30;59249;59.736;30.568;2022-09-30T01:37:00;10.19;90.10
71128;SHT30;59249;59.736;30.568;2022-09-30T01:39:48;10.13;90.20
71128;SHT30;59249;59.736;30.568;2022-09-30T01:42:26;10.13;90.30
71128;SHT30;59249;59.736;30.568;2022-09-30T01:45:01;10.15;90.21
71128;SHT30;59249;59.736;30.568;2022-09-30T01:47:41;10.13;90.31
71128;SHT30;59249;59.736;30.568;2022-09-30T01:50:19;10.15;90.20
71128;SHT30;59249;59.736;30.568;2022-09-30T01:52:59;10.13;90.23
71128;SHT30;59249;59.736;30.568;2022-09-30T01:55:36;10.22;90.22
71128;SHT30;59249;59.736;30.568;2022-09-30T01:58:13;10.18;90.21
71128;SHT30;59249;59.736;30.568;2022-09-30T02:00:52;10.24;90.18
71128;SHT30;59249;59.736;30.568;2022-09-30T02:03:30;10.21;90.05
71128;SHT30;59249;59.736;30.568;2022-09-30T02:06:05;10.22;89.97
71128;SHT30;59249;59.736;30.568;2022-09-30T02:08:41;10.20;90.02
71128;SHT30;59249;59.736;30.568;2022-09-30T02:11:14;10.18;90.11
71128;SHT30;59249;59.736;30.568;2022-09-30T02:13:52;10.15;90.20
71128;SHT30;59249;59.736;30.568;2022-09-30T02:16:47;10.23;90.05
71128;SHT30;59249;59.736;30.568;2022-09-30T02:19:22;10.17;89.97
71128;SHT30;59249;59.736;30.568;2022-09-30T02:21:59;10.13;90.07
71128;SHT30;59249;59.736;30.568;2022-09-30T02:24:34;10.08;90.18
71128;SHT30;59249;59.736;30.568;2022-09-30T02:27:08;10.15;90.08
71128;SHT30;59249;59.736;30.568;2022-09-30T02:29:45;10.10;90.29
71128;SHT30;59249;59.736;30.568;2022-09-30T02:32:22;10.20;89.97
71128;SHT30;59249;59.736;30.568;2022-09-30T02:34:57;10.19;89.90
71128;SHT30;59249;59.736;30.568;2022-09-30T02:37:34;10.15;90.08
71128;SHT30;59249;59.736;30.568;2022-09-30T02:40:09;10.13;90.02
71128;SHT30;59249;59.736;30.568;2022-09-30T02:42:44;10.14;89.96
71128;SHT30;59249;59.736;30.568;2022-09-30T02:45:15;10.15;89.89
71128;SHT30;59249;59.736;30.568;2022-09-30T02:48:03;10.15;89.71
71128;SHT30;59249;59.736;30.568;2022-09-30T02:50:46;10.10;89.73
71128;SHT30;59249;59.736;30.568;2022-09-30T02:53:23;10.15;89.74
71128;SHT30;59249;59.736;30.568;2022-09-30T02:56:16;10.14;89.72
71128;SHT30;59249;59.736;30.568;2022-09-30T02:58:50;10.20;89.52
71128;SHT30;59249;59.736;30.568;2022-09-30T03:01:20;10.20;89.57
71128;SHT30;59249;59.736;30.568;2022-09-30T03:03:52;10.21;89.52
71128;SHT30;59249;59.736;30.568;2022-09-30T03:06:24;10.17;89.41
71128;SHT30;59249;59.736;30.568;2022-09-30T03:08:53;10.19;89.37
71128;SHT30;59249;59.736;30.568;2022-09-30T03:11:25;10.22;89.20
71128;SHT30;59249;59.736;30.568;2022-09-30T03:14:22;10.22;89.12
71128;SHT30;59249;59.736;30.568;2022-09-30T03:17:19;10.20;89.04
71128;SHT30;59249;59.736;30.568;2022-09-30T03:20:13;10.13;88.89
71128;SHT30;59249;59.736;30.568;2022-09-30T03:25:59;10.01;88.86
71128;SHT30;59249;59.736;30.568;2022-09-30T03:28:35;10.08;88.85
71128;SHT30;59249;59.736;30.568;2022-09-30T03:31:14;10.08;88.76
71128;SHT30;59249;59.736;30.568;2022-09-30T03:33:52;10.04;88.68
71128;SHT30;59249;59.736;30.568;2022-09-30T03:36:31;10.12;88.67
71128;SHT30;59249;59.736;30.568;2022-09-30T03:39:15;10.06;88.76
71128;SHT30;59249;59.736;30.568;2022-09-30T03:41:51;10.04;88.89
71128;SHT30;59249;59.736;30.568;2022-09-30T03:44:30;9.99;88.93
71128;SHT30;59249;59.736;30.568;2022-09-30T03:47:05;10.08;88.96
71128;SHT30;59249;59.736;30.568;2022-09-30T03:49:41;9.97;89.17
71128;SHT30;59249;59.736;30.568;2022-09-30T03:52:12;10.06;89.35
71128;SHT30;59249;59.736;30.568;2022-09-30T03:54:53;10.09;89.27
71128;SHT30;59249;59.736;30.568;2022-09-30T03:57:22;10.10;89.11
71128;SHT30;59249;59.736;30.568;2022-09-30T03:59:56;10.09;89.11
71128;SHT30;59249;59.736;30.568;2022-09-30T04:02:26;10.10;89.10
71128;SHT30;59249;59.736;30.568;2022-09-30T04:04:55;10.06;89.17
71128;SHT30;59249;59.736;30.568;2022-09-30T04:07:25;10.02;89.09
71128;SHT30;59249;59.736;30.568;2022-09-30T04:09:55;10.12;88.98
71128;SHT30;59249;59.736;30.568;2022-09-30T04:12:24;10.16;88.89
71128;SHT30;59249;59.736;30.568;2022-09-30T04:14:53;10.13;88.87
71128;SHT30;59249;59.736;30.568;2022-09-30T04:17:21;10.11;88.86
71128;SHT30;59249;59.736;30.568;2022-09-30T04:19:50;10.15;88.83
71128;SHT30;59249;59.736;30.568;2022-09-30T04:22:19;10.13;88.79
71128;SHT30;59249;59.736;30.568;2022-09-30T04:24:52;10.20;88.71
71128;SHT30;59249;59.736;30.568;2022-09-30T04:27:22;10.05;88.73
71128;SHT30;59249;59.736;30.568;2022-09-30T04:29:51;10.13;88.75
71128;SHT30;59249;59.736;30.568;2022-09-30T04:32:21;10.13;89.01
71128;SHT30;59249;59.736;30.568;2022-09-30T04:34:51;10.16;88.70
71128;SHT30;59249;59.736;30.568;2022-09-30T04:37:21;10.18;88.60
71128;SHT30;59249;59.736;30.568;2022-09-30T04:39:50;10.16;88.49
71128;SHT30;59249;59.736;30.568;2022-09-30T04:42:19;10.21;88.44
71128;SHT30;59249;59.736;30.568;2022-09-30T04:44:49;10.22;88.49
71128;SHT30;59249;59.736;30.568;2022-09-30T04:47:18;10.19;88.49
71128;SHT30;59249;59.736;30.568;2022-09-30T04:49:46;10.25;88.46
71128;SHT30;59249;59.736;30.568;2022-09-30T04:52:15;10.35;88.35
71128;SHT30;59249;59.736;30.568;2022-09-30T04:54:44;10.37;88.20
71128;SHT30;59249;59.736;30.568;2022-09-30T04:57:12;10.41;88.20
71128;SHT30;59249;59.736;30.568;2022-09-30T04:59:41;10.42;88.11
71128;SHT30;59249;59.736;30.568;2022-09-30T05:02:13;10.45;87.84
71128;SHT30;59249;59.736;30.568;2022-09-30T05:04:41;10.46;87.81
71128;SHT30;59249;59.736;30.568;2022-09-30T05:07:10;10.48;87.84
71128;SHT30;59249;59.736;30.568;2022-09-30T05:09:40;10.43;87.55
71128;SHT30;59249;59.736;30.568;2022-09-30T05:12:09;10.44;87.75
71128;SHT30;59249;59.736;30.568;2022-09-30T05:14:38;10.47;87.57
71128;SHT30;59249;59.736;30.568;2022-09-30T05:17:07;10.48;87.69
71128;SHT30;59249;59.736;30.568;2022-09-30T05:19:37;10.47;87.56
71128;SHT30;59249;59.736;30.568;2022-09-30T05:22:06;10.51;87.82
71128;SHT30;59249;59.736;30.568;2022-09-30T05:24:35;10.56;87.56
71128;SHT30;59249;59.736;30.568;2022-09-30T05:27:03;10.52;87.28
71128;SHT30;59249;59.736;30.568;2022-09-30T05:29:33;10.56;87.36
71128;SHT30;59249;59.736;30.568;2022-09-30T05:32:02;10.56;87.44
71128;SHT30;59249;59.736;30.568;2022-09-30T05:34:30;10.57;87.45
71128;SHT30;59249;59.736;30.568;2022-09-30T05:37:00;10.54;87.79
71128;SHT30;59249;59.736;30.568;2022-09-30T05:39:29;10.57;87.64
71128;SHT30;59249;59.736;30.568;2022-09-30T05:41:58;10.61;87.81
71128;SHT30;59249;59.736;30.568;2022-09-30T05:44:27;10.67;87.64
71128;SHT30;59249;59.736;30.568;2022-09-30T05:46:56;10.61;87.58
71128;SHT30;59249;59.736;30.568;2022-09-30T05:49:25;10.61;87.69
71128;SHT30;59249;59.736;30.568;2022-09-30T05:51:54;10.65;87.56
71128;SHT30;59249;59.736;30.568;2022-09-30T05:54:24;10.67;87.52
71128;SHT30;59249;59.736;30.568;2022-09-30T05:56:53;10.70;87.49
71128;SHT30;59249;59.736;30.568;2022-09-30T05:59:21;10.67;87.33
71128;SHT30;59249;59.736;30.568;2022-09-30T06:01:50;10.76;87.46
71128;SHT30;59249;59.736;30.568;2022-09-30T06:04:20;10.75;87.23
71128;SHT30;59249;59.736;30.568;2022-09-30T06:06:49;10.77;87.03
71128;SHT30;59249;59.736;30.568;2022-09-30T06:09:17;10.73;87.17
71128;SHT30;59249;59.736;30.568;2022-09-30T06:11:48;10.80;87.29
71128;SHT30;59249;59.736;30.568;2022-09-30T06:14:16;10.81;87.13
71128;SHT30;59249;59.736;30.568;2022-09-30T06:16:46;10.99;87.12
71128;SHT30;59249;59.736;30.568;2022-09-30T06:19:14;10.94;87.04
71128;SHT30;59249;59.736;30.568;2022-09-30T06:21:43;10.92;87.24
71128;SHT30;59249;59.736;30.568;2022-09-30T06:24:12;10.95;86.94
71128;SHT30;59249;59.736;30.568;2022-09-30T06:26:41;10.99;86.36
71128;SHT30;59249;59.736;30.568;2022-09-30T06:29:11;10.99;86.34
71128;SHT30;59249;59.736;30.568;2022-09-30T06:31:40;11.05;86.52
71128;SHT30;59249;59.736;30.568;2022-09-30T06:34:09;11.06;86.07
71128;SHT30;59249;59.736;30.568;2022-09-30T06:36:38;11.15;86.04
71128;SHT30;59249;59.736;30.568;2022-09-30T06:39:07;11.15;85.96
71128;SHT30;59249;59.736;30.568;2022-09-30T06:41:39;11.29;85.93
71128;SHT30;59249;59.736;30.568;2022-09-30T06:44:17;11.29;85.77
71128;SHT30;59249;59.736;30.568;2022-09-30T06:46:46;11.34;85.56
71128;SHT30;59249;59.736;30.568;2022-09-30T06:49:20;11.46;85.52
71128;SHT30;59249;59.736;30.568;2022-09-30T06:51:50;11.47;85.49
71128;SHT30;59249;59.736;30.568;2022-09-30T06:54:19;11.44;85.45
71128;SHT30;59249;59.736;30.568;2022-09-30T06:56:48;11.56;85.47
71128;SHT30;59249;59.736;30.568;2022-09-30T06:59:20;11.56;85.27
71128;SHT30;59249;59.736;30.568;2022-09-30T07:01:49;11.51;85.45
71128;SHT30;59249;59.736;30.568;2022-09-30T07:04:18;11.42;85.49
71128;SHT30;59249;59.736;30.568;2022-09-30T07:06:48;11.35;85.75
71128;SHT30;59249;59.736;30.568;2022-09-30T07:09:17;11.29;85.85
71128;SHT30;59249;59.736;30.568;2022-09-30T07:11:47;11.29;86.04
71128;SHT30;59249;59.736;30.568;2022-09-30T07:14:20;11.25;86.21
71128;SHT30;59249;59.736;30.568;2022-09-30T07:16:50;11.08;86.67
71128;SHT30;59249;59.736;30.568;2022-09-30T07:19:19;10.95;87.07
71128;SHT30;59249;59.736;30.568;2022-09-30T07:21:50;11.01;87.28
71128;SHT30;59249;59.736;30.568;2022-09-30T07:24:21;11.17;87.09
71128;SHT30;59249;59.736;30.568;2022-09-30T07:26:50;11.08;87.02
71128;SHT30;59249;59.736;30.568;2022-09-30T07:29:20;11.28;87.13
71128;SHT30;59249;59.736;30.568;2022-09-30T07:31:49;11.29;86.80
71128;SHT30;59249;59.736;30.568;2022-09-30T07:34:17;11.26;87.24
71128;SHT30;59249;59.736;30.568;2022-09-30T07:36:46;11.23;87.28
71128;SHT30;59249;59.736;30.568;2022-09-30T07:39:15;11.30;87.31
71128;SHT30;59249;59.736;30.568;2022-09-30T07:41:44;11.21;86.97
71128;SHT30;59249;59.736;30.568;2022-09-30T07:44:14;11.38;87.14
71128;SHT30;59249;59.736;30.568;2022-09-30T07:46:44;11.27;87.07
71128;SHT30;59249;59.736;30.568;2022-09-30T07:49:16;11.32;86.69
71128;SHT30;59249;59.736;30.568;2022-09-30T07:51:54;11.43;86.97
71128;SHT30;59249;59.736;30.568;2022-09-30T07:54:27;11.29;86.86
71128;SHT30;59249;59.736;30.568;2022-09-30T07:56:59;11.44;86.75
71128;SHT30;59249;59.736;30.568;2022-09-30T07:59:40;11.40;86.30
71128;SHT30;59249;59.736;30.568;2022-09-30T08:02:15;11.31;86.41
71128;SHT30;59249;59.736;30.568;2022-09-30T08:04:46;11.14;86.76
71128;SHT30;59249;59.736;30.568;2022-09-30T08:07:16;11.16;86.91
71128;SHT30;59249;59.736;30.568;2022-09-30T08:09:45;11.12;87.23
71128;SHT30;59249;59.736;30.568;2022-09-30T08:12:15;11.12;87.10
71128;SHT30;59249;59.736;30.568;2022-09-30T08:14:47;11.06;87.13
71128;SHT30;59249;59.736;30.568;2022-09-30T08:17:20;11.06;86.93
71128;SHT30;59249;59.736;30.568;2022-09-30T08:19:49;10.94;86.96
71128;SHT30;59249;59.736;30.568;2022-09-30T08:22:18;11.00;87.09
71128;SHT30;59249;59.736;30.568;2022-09-30T08:24:48;11.04;87.26
71128;SHT30;59249;59.736;30.568;2022-09-30T08:27:16;11.13;86.90
71128;SHT30;59249;59.736;30.568;2022-09-30T08:29:45;11.06;86.80
71128;SHT30;59249;59.736;30.568;2022-09-30T08:32:24;11.04;87.01
71128;SHT30;59249;59.736;30.568;2022-09-30T08:34:53;11.15;86.79
71128;SHT30;59249;59.736;30.568;2022-09-30T08:37:22;11.11;86.63
71128;SHT30;59249;59.736;30.568;2022-09-30T08:39:51;11.14;86.66
71128;SHT30;59249;59.736;30.568;2022-09-30T08:42:43;11.04;86.79
71128;SHT30;59249;59.736;30.568;2022-09-30T08:45:36;11.18;86.99
71128;SHT30;59249;59.736;30.568;2022-09-30T08:48:30;11.13;87.09
71128;SHT30;59249;59.736;30.568;2022-09-30T08:51:16;11.32;87.17
71128;SHT30;59249;59.736;30.568;2022-09-30T08:53:52;11.41;87.15
71128;SHT30;59249;59.736;30.568;2022-09-30T08:56:26;11.42;87.18
71128;SHT30;59249;59.736;30.568;2022-09-30T08:59:04;11.41;86.73
71128;SHT30;59249;59.736;30.568;2022-09-30T09:01:38;11.48;86.77
71128;SHT30;59249;59.736;30.568;2022-09-30T09:04:10;11.52;87.00
71128;SHT30;59249;59.736;30.568;2022-09-30T09:06:50;11.52;86.81
71128;SHT30;59249;59.736;30.568;2022-09-30T09:09:50;11.55;86.81
71128;SHT30;59249;59.736;30.568;2022-09-30T09:12:40;11.50;86.72
71128;SHT30;59249;59.736;30.568;2022-09-30T09:15:27;11.51;86.78
71128;SHT30;59249;59.736;30.568;2022-09-30T09:18:22;11.46;86.46
71128;SHT30;59249;59.736;30.568;2022-09-30T09:20:57;11.48;86.91
71128;SHT30;59249;59.736;30.568;2022-09-30T09:23:31;11.50;87.10
71128;SHT30;59249;59.736;30.568;2022-09-30T09:26:02;11.54;87.14
71128;SHT30;59249;59.736;30.568;2022-09-30T09:28:38;11.64;87.06
71128;SHT30;59249;59.736;30.568;2022-09-30T09:31:16;11.73;86.77
71128;SHT30;59249;59.736;30.568;2022-09-30T09:33:46;11.74;86.31
71128;SHT30;59249;59.736;30.568;2022-09-30T09:36:31;11.64;86.36
71128;SHT30;59249;59.736;30.568;2022-09-30T09:39:31;11.73;86.57
71128;SHT30;59249;59.736;30.568;2022-09-30T09:42:26;11.79;86.33
71128;SHT30;59249;59.736;30.568;2022-09-30T09:45:01;11.82;86.11
71128;SHT30;59249;59.736;30.568;2022-09-30T09:47:31;11.86;86.03
71128;SHT30;59249;59.736;30.568;2022-09-30T09:50:02;11.92;86.11
71128;SHT30;59249;59.736;30.568;2022-09-30T09:52:49;12.02;86.11
71128;SHT30;59249;59.736;30.568;2022-09-30T09:55:23;12.11;85.76
71128;SHT30;59249;59.736;30.568;2022-09-30T09:58:06;12.20;85.78
71128;SHT30;59249;59.736;30.568;2022-09-30T10:00:36;12.39;84.96
71128;SHT30;59249;59.736;30.568;2022-09-30T10:03:25;12.44;84.48
71128;SHT30;59249;59.736;30.568;2022-09-30T10:06:04;12.41;84.07
71128;SHT30;59249;59.736;30.568;2022-09-30T10:08:38;12.37;84.45
71128;SHT30;59249;59.736;30.568;2022-09-30T10:11:19;12.36;84.20
71128;SHT30;59249;59.736;30.568;2022-09-30T10:13:55;12.31;84.16
71128;SHT30;59249;59.736;30.568;2022-09-30T10:16:30;12.23;84.73
71128;SHT30;59249;59.736;30.568;2022-09-30T10:19:15;12.06;84.49
71128;SHT30;59249;59.736;30.568;2022-09-30T10:21:46;12.08;84.85
71128;SHT30;59249;59.736;30.568;2022-09-30T10:24:28;12.13;85.00
71128;SHT30;59249;59.736;30.568;2022-09-30T10:26:57;12.07;84.71
71128;SHT30;59249;59.736;30.568;2022-09-30T10:29:29;12.11;84.83
71128;SHT30;59249;59.736;30.568;2022-09-30T10:32:01;11.99;84.81
71128;SHT30;59249;59.736;30.568;2022-09-30T10:34:35;12.07;85.11
71128;SHT30;59249;59.736;30.568;2022-09-30T10:37:10;12.06;84.76
71128;SHT30;59249;59.736;30.568;2022-09-30T10:39:51;11.96;85.06
71128;SHT30;59249;59.736;30.568;2022-09-30T10:42:24;11.91;85.31
71128;SHT30;59249;59.736;30.568;2022-09-30T10:44:56;11.93;85.54
71128;SHT30;59249;59.736;30.568;2022-09-30T10:47:27;11.85;85.86
71128;SHT30;59249;59.736;30.568;2022-09-30T10:50:09;11.93;85.88
71128;SHT30;59249;59.736;30.568;2022-09-30T10:52:53;11.87;85.94
71128;SHT30;59249;59.736;30.568;2022-09-30T10:55:32;11.87;85.99
71128;SHT30;59249;59.736;30.568;2022-09-30T10:58:28;11.81;86.72
71128;SHT30;59249;59.736;30.568;2022-09-30T11:01:08;11.85;87.11
71128;SHT30;59249;59.736;30.568;2022-09-30T11:03:58;11.85;86.61
71128;SHT30;59249;59.736;30.568;2022-09-30T11:06:36;11.87;86.72
71128;SHT30;59249;59.736;30.568;2022-09-30T11:09:13;11.83;86.72
71128;SHT30;59249;59.736;30.568;2022-09-30T11:11:52;11.82;86.75
71128;SHT30;59249;59.736;30.568;2022-09-30T11:14:32;11.80;86.66
71128;SHT30;59249;59.736;30.568;2022-09-30T11:17:18;11.79;86.30
71128;SHT30;59249;59.736;30.568;2022-09-30T11:20:01;11.62;86.30
71128;SHT30;59249;59.736;30.568;2022-09-30T11:22:44;11.53;86.30
71128;SHT30;59249;59.736;30.568;2022-09-30T11:25:20;11.47;86.26
71128;SHT30;59249;59.736;30.568;2022-09-30T11:28:14;11.25;85.47
71128;SHT30;59249;59.736;30.568;2022-09-30T11:30:55;11.13;85.53
71128;SHT30;59249;59.736;30.568;2022-09-30T11:33:59;11.04;86.06
71128;SHT30;59249;59.736;30.568;2022-09-30T11:36:39;10.94;86.02
71128;SHT30;59249;59.736;30.568;2022-09-30T11:39:43;10.89;86.27
71128;SHT30;59249;59.736;30.568;2022-09-30T11:42:27;10.86;86.29
71128;SHT30;59249;59.736;30.568;2022-09-30T11:45:19;10.77;85.88
71128;SHT30;59249;59.736;30.568;2022-09-30T11:48:12;10.80;85.75
71128;SHT30;59249;59.736;30.568;2022-09-30T11:50:59;10.82;85.63
71128;SHT30;59249;59.736;30.568;2022-09-30T11:53:42;10.80;86.06
71128;SHT30;59249;59.736;30.568;2022-09-30T11:56:33;10.70;86.58
71128;SHT30;59249;59.736;30.568;2022-09-30T11:59:13;10.58;87.00
71128;SHT30;59249;59.736;30.568;2022-09-30T12:01:49;10.43;87.57
71128;SHT30;59249;59.736;30.568;2022-09-30T12:04:26;10.46;86.32
71128;SHT30;59249;59.736;30.568;2022-09-30T12:07:01;10.44;86.32
71128;SHT30;59249;59.736;30.568;2022-09-30T12:09:37;10.33;86.16
71128;SHT30;59249;59.736;30.568;2022-09-30T12:12:11;10.29;86.73
71128;SHT30;59249;59.736;30.568;2022-09-30T12:14:47;10.29;86.87
71128;SHT30;59249;59.736;30.568;2022-09-30T12:17:25;10.28;87.12
71128;SHT30;59249;59.736;30.568;2022-09-30T12:20:06;10.30;87.34
71128;SHT30;59249;59.736;30.568;2022-09-30T12:22:40;10.36;87.42
71128;SHT30;59249;59.736;30.568;2022-09-30T12:25:17;10.33;87.29
71128;SHT30;59249;59.736;30.568;2022-09-30T12:27:53;10.43;87.22
71128;SHT30;59249;59.736;30.568;2022-09-30T12:30:28;10.47;87.10
71128;SHT30;59249;59.736;30.568;2022-09-30T12:33:26;10.57;86.99
71128;SHT30;59249;59.736;30.568;2022-09-30T12:36:17;10.64;86.95
71128;SHT30;59249;59.736;30.568;2022-09-30T12:39:26;10.75;86.85
71128;SHT30;59249;59.736;30.568;2022-09-30T12:42:19;10.82;86.74
71128;SHT30;59249;59.736;30.568;2022-09-30T12:45:23;11.02;87.03
71128;SHT30;59249;59.736;30.568;2022-09-30T12:47:59;11.13;86.59
71128;SHT30;59249;59.736;30.568;2022-09-30T12:50:40;11.28;87.02
71128;SHT30;59249;59.736;30.568;2022-09-30T12:53:16;11.31;86.82
71128;SHT30;59249;59.736;30.568;2022-09-30T12:55:47;11.35;86.97
71128;SHT30;59249;59.736;30.568;2022-09-30T12:58:25;11.24;87.13
71128;SHT30;59249;59.736;30.568;2022-09-30T13:01:02;11.26;87.44
71128;SHT30;59249;59.736;30.568;2022-09-30T13:04:29;11.33;87.79
71128;SHT30;59249;59.736;30.568;2022-09-30T13:07:22;11.36;87.82
71128;SHT30;59249;59.736;30.568;2022-09-30T13:12:44;11.51;87.84
71128;SHT30;59249;59.736;30.568;2022-09-30T13:15:41;11.59;87.83
71128;SHT30;59249;59.736;30.568;2022-09-30T13:21:31;11.57;87.78
71128;SHT30;59249;59.736;30.568;2022-09-30T13:24:01;11.66;87.70
71128;SHT30;59249;59.736;30.568;2022-09-30T13:26:43;11.66;87.63
71128;SHT30;59249;59.736;30.568;2022-09-30T13:29:35;11.67;87.59
71128;SHT30;59249;59.736;30.568;2022-09-30T13:32:08;11.68;87.59
71128;SHT30;59249;59.736;30.568;2022-09-30T13:34:55;11.71;87.52
71128;SHT30;59249;59.736;30.568;2022-09-30T13:37:38;11.65;87.37
71128;SHT30;59249;59.736;30.568;2022-09-30T13:40:24;11.59;87.31
71128;SHT30;59249;59.736;30.568;2022-09-30T13:43:25;11.59;87.32
71128;SHT30;59249;59.736;30.568;2022-09-30T13:45:57;11.64;87.31
71128;SHT30;59249;59.736;30.568;2022-09-30T13:48:30;11.67;87.53
71128;SHT30;59249;59.736;30.568;2022-09-30T13:51:07;11.75;87.65
71128;SHT30;59249;59.736;30.568;2022-09-30T13:53:43;11.82;87.57
71128;SHT30;59249;59.736;30.568;2022-09-30T13:56:20;11.84;87.26
71128;SHT30;59249;59.736;30.568;2022-09-30T13:59:30;11.71;87.13
71128;SHT30;59249;59.736;30.568;2022-09-30T14:02:29;11.66;86.63
71128;SHT30;59249;59.736;30.568;2022-09-30T14:05:36;11.57;86.25
71128;SHT30;59249;59.736;30.568;2022-09-30T14:09:00;11.48;85.28
71128;SHT30;59249;59.736;30.568;2022-09-30T14:15:16;11.39;85.10
71128;SHT30;59249;59.736;30.568;2022-09-30T14:21:29;11.45;85.19
71128;SHT30;59249;59.736;30.568;2022-09-30T14:24:02;11.43;85.39
71128;SHT30;59249;59.736;30.568;2022-09-30T14:27:16;11.32;85.38
71128;SHT30;59249;59.736;30.568;2022-09-30T14:29:59;11.21;85.01
71128;SHT30;59249;59.736;30.568;2022-09-30T14:32:43;11.27;85.34
71128;SHT30;59249;59.736;30.568;2022-09-30T14:35:18;11.16;85.37
71128;SHT30;59249;59.736;30.568;2022-09-30T14:37:50;11.15;85.26
71128;SHT30;59249;59.736;30.568;2022-09-30T14:40:27;11.24;84.95
71128;SHT30;59249;59.736;30.568;2022-09-30T14:43:01;11.18;84.84
71128;SHT30;59249;59.736;30.568;2022-09-30T14:45:34;11.16;84.73
71128;SHT30;59249;59.736;30.568;2022-09-30T14:48:08;11.05;84.62
71128;SHT30;59249;59.736;30.568;2022-09-30T14:50:49;11.00;84.91
71128;SHT30;59249;59.736;30.568;2022-09-30T14:53:26;10.99;85.24
71128;SHT30;59249;59.736;30.568;2022-09-30T14:55:58;10.95;85.43
71128;SHT30;59249;59.736;30.568;2022-09-30T14:58:30;10.98;85.39
71128;SHT30;59249;59.736;30.568;2022-09-30T15:01:11;11.11;85.32
71128;SHT30;59249;59.736;30.568;2022-09-30T15:03:45;10.93;85.23
71128;SHT30;59249;59.736;30.568;2022-09-30T15:06:20;10.94;85.42
71128;SHT30;59249;59.736;30.568;2022-09-30T15:08:59;10.87;85.93
71128;SHT30;59249;59.736;30.568;2022-09-30T15:11:29;10.89;85.95
71128;SHT30;59249;59.736;30.568;2022-09-30T15:14:07;10.87;85.97
71128;SHT30;59249;59.736;30.568;2022-09-30T15:16:45;10.85;85.83
71128;SHT30;59249;59.736;30.568;2022-09-30T15:19:19;10.85;86.07
71128;SHT30;59249;59.736;30.568;2022-09-30T15:21:51;10.80;86.22
71128;SHT30;59249;59.736;30.568;2022-09-30T15:24:24;10.71;86.98
71128;SHT30;59249;59.736;30.568;2022-09-30T15:26:54;10.62;86.83
71128;SHT30;59249;59.736;30.568;2022-09-30T15:29:25;10.52;87.18
71128;SHT30;59249;59.736;30.568;2022-09-30T15:32:03;10.46;87.46
71128;SHT30;59249;59.736;30.568;2022-09-30T15:34:32;10.41;87.89
71128;SHT30;59249;59.736;30.568;2022-09-30T15:37:03;10.39;88.22
71128;SHT30;59249;59.736;30.568;2022-09-30T15:39:39;10.38;88.32
71128;SHT30;59249;59.736;30.568;2022-09-30T15:42:35;10.33;88.12
71128;SHT30;59249;59.736;30.568;2022-09-30T15:45:28;10.27;88.25
71128;SHT30;59249;59.736;30.568;2022-09-30T15:48:05;10.18;88.45
71128;SHT30;59249;59.736;30.568;2022-09-30T15:50:36;10.13;88.67
71128;SHT30;59249;59.736;30.568;2022-09-30T15:53:15;10.06;88.92
71128;SHT30;59249;59.736;30.568;2022-09-30T15:55:51;10.06;88.94
71128;SHT30;59249;59.736;30.568;2022-09-30T15:58:36;10.00;88.90
71128;SHT30;59249;59.736;30.568;2022-09-30T16:01:18;9.98;89.08
71128;SHT30;59249;59.736;30.568;2022-09-30T16:03:52;9.89;89.32
71128;SHT30;59249;59.736;30.568;2022-09-30T16:06:29;9.82;89.52
71128;SHT30;59249;59.736;30.568;2022-09-30T16:09:05;9.83;89.54
71128;SHT30;59249;59.736;30.568;2022-09-30T16:11:37;9.84;89.44
71128;SHT30;59249;59.736;30.568;2022-09-30T16:14:16;9.89;89.80
71128;SHT30;59249;59.736;30.568;2022-09-30T16:16:51;9.91;89.52
71128;SHT30;59249;59.736;30.568;2022-09-30T16:19:24;9.89;89.60
71128;SHT30;59249;59.736;30.568;2022-09-30T16:21:55;9.79;89.33
71128;SHT30;59249;59.736;30.568;2022-09-30T16:24:46;9.71;89.71
71128;SHT30;59249;59.736;30.568;2022-09-30T16:27:25;9.57;90.01
71128;SHT30;59249;59.736;30.568;2022-09-30T16:29:58;9.50;90.34
71128;SHT30;59249;59.736;30.568;2022-09-30T16:32:38;9.43;90.26
71128;SHT30;59249;59.736;30.568;2022-09-30T16:35:16;9.43;90.40